»·PEaware :: N727JR KPHX-KSAN

N727JR :: KPHX-KSAN

FLIGHT INFORMATION

Flight Status: Arrived
Operator: Privately registered:
United States
More flights under this callsign
Pilot: Salim S. (29683)
Aircraft: BOEING 727-200
(B722)
More flights by this aircraft type
Origin: KPHX Phoenix Sky Harbor Intl
United States
Destination: KSAN San Diego Intl-Lindbergh
United States
More flights between these airports :: More routes between these airports
Route: +MOBIE4 GBN J2 IPL BARET5
File this flight plan on PilotEdge
Remarks:
Altitude:
(Current/Filed)
26,000ft
Speed:
(Current/Filed)
300kts
Departed: 17-Jun-20 12:55 PM
Arrived: 17-Jun-20 01:49 PM
Distance/Time
Traveled:
264nm/0:54
Distance/Time
To Go:
Arrived

Flight Plot

Page will automatically refresh every two minutes.


Map Options




Map Legend


Flown Route
Filed Route
Departure Airport
Arrival Airport
Navaid (VOR, NDB)
Fix

Horizontal Profiles

Position Reports

Time Latitude Longitude Heading Altitude Ground
Speed
17-Jun-20 12:27 33.433558 -112.008251 320 1134ft 0kts
17-Jun-20 12:28 33.433558 -112.008251 320 1134ft 0kts
17-Jun-20 12:29 33.433558 -112.008251 320 1134ft 0kts
17-Jun-20 12:30 33.433558 -112.008251 320 1134ft 0kts
17-Jun-20 12:31 33.433558 -112.008251 320 1134ft 0kts
17-Jun-20 12:32 33.433558 -112.008251 320 1134ft 0kts
17-Jun-20 12:33 33.433558 -112.008251 320 1134ft 0kts
17-Jun-20 12:34 33.433558 -112.008251 320 1134ft 0kts
17-Jun-20 12:35 33.433558 -112.008251 320 1134ft 0kts
17-Jun-20 12:36 33.433558 -112.008251 320 1134ft 0kts
17-Jun-20 12:37 33.433558 -112.008251 320 1134ft 0kts
17-Jun-20 12:38 33.433558 -112.008251 320 1134ft 0kts
17-Jun-20 12:39 33.433558 -112.008251 320 1134ft 0kts
17-Jun-20 12:40 33.433558 -112.008251 320 1134ft 0kts
17-Jun-20 12:41 33.433558 -112.008251 320 1134ft 0kts
17-Jun-20 12:42 33.433558 -112.008251 320 1134ft 0kts
17-Jun-20 12:43 33.433558 -112.008251 320 1133ft 0kts
17-Jun-20 12:44 33.433558 -112.008251 320 1133ft 0kts
17-Jun-20 12:45 33.433558 -112.008251 320 1133ft 0kts
17-Jun-20 12:46 33.433558 -112.008251 320 1133ft 0kts
17-Jun-20 12:47 33.433558 -112.008251 320 1133ft 0kts
17-Jun-20 12:48 33.433399 -112.007847 238 1133ft 11kts
17-Jun-20 12:49 33.432861 -112.009628 269 1130ft 23kts
17-Jun-20 12:50 33.432883 -112.021632 270 1121ft 39kts
17-Jun-20 12:51 33.432201 -112.026950 183 1117ft 0kts
17-Jun-20 12:52 33.432201 -112.026950 183 1117ft 0kts
17-Jun-20 12:53 33.431053 -112.026157 91 1118ft 9kts
17-Jun-20 12:54 33.430787 -111.993263 91 1448ft 158kts
17-Jun-20 12:55 33.434002 -111.934663 84 2673ft 212kts
17-Jun-20 12:56 33.432308 -111.862123 109 5422ft 240kts
17-Jun-20 12:57 33.411416 -111.778357 110 8545ft 279kts
17-Jun-20 12:58 33.349721 -111.757625 221 11013ft 299kts
17-Jun-20 12:59 33.301269 -111.844579 236 13469ft 324kts
17-Jun-20 13:00 33.258840 -111.941041 244 15942ft 334kts
17-Jun-20 13:01 33.222899 -112.045924 245 18095ft 345kts
17-Jun-20 13:02 33.183080 -112.151353 242 20010ft 353kts
17-Jun-20 13:03 33.136688 -112.255692 240 21716ft 361kts
17-Jun-20 13:04 33.088486 -112.362397 241 23188ft 370kts
17-Jun-20 13:05 33.041696 -112.473632 243 24398ft 382kts
17-Jun-20 13:06 32.993366 -112.588217 242 25538ft 391kts
17-Jun-20 13:08 32.942349 -112.707346 243 25913ft 419kts
17-Jun-20 13:09 32.930475 -112.849621 267 25906ft 452kts
17-Jun-20 13:10 32.918960 -113.000021 253 25903ft 463kts
17-Jun-20 13:11 32.886816 -113.150351 261 25901ft 476kts
17-Jun-20 13:12 32.869844 -113.308413 261 25901ft 487kts
17-Jun-20 13:13 32.850044 -113.469998 260 25900ft 497kts
17-Jun-20 13:14 32.827078 -113.633033 259 25900ft 504kts
17-Jun-20 13:15 32.802314 -113.798093 259 25900ft 509kts
17-Jun-20 13:16 32.777413 -113.964066 260 25899ft 510kts
17-Jun-20 13:17 32.770023 -114.131945 270 25899ft 510kts
17-Jun-20 13:18 32.772827 -114.300580 269 25898ft 509kts
17-Jun-20 13:19 32.769968 -114.467796 268 25896ft 504kts
17-Jun-20 13:20 32.767236 -114.632903 268 25892ft 499kts
17-Jun-20 13:21 32.767036 -114.797948 268 25886ft 495kts
17-Jun-20 13:22 32.764971 -114.961102 267 25879ft 493kts
17-Jun-20 13:23 32.761772 -115.123258 267 25868ft 491kts
17-Jun-20 13:24 32.753464 -115.284772 259 25859ft 485kts
17-Jun-20 13:25 32.749390 -115.444403 268 25862ft 484kts
17-Jun-20 13:25 32.747411 -115.577456 268 25867ft 483kts
17-Jun-20 13:27 32.754833 -115.762039 270 25873ft 478kts
17-Jun-20 13:27 32.758956 -115.893696 271 25871ft 478kts
17-Jun-20 13:28 32.763491 -116.040385 271 25871ft 478kts
17-Jun-20 13:30 32.768302 -116.222088 270 25241ft 455kts
17-Jun-20 13:30 32.785639 -116.340355 303 23557ft 426kts
17-Jun-20 13:31 32.879513 -116.372537 29 20203ft 357kts
17-Jun-20 13:32 32.926982 -116.278509 70 15757ft 334kts
17-Jun-20 13:33 32.930945 -116.179301 135 12560ft 317kts
17-Jun-20 13:34 32.859731 -116.186688 228 11832ft 289kts
17-Jun-20 13:35 32.808724 -116.263369 232 11814ft 298kts
17-Jun-20 13:36 32.779473 -116.350274 263 9998ft 275kts
17-Jun-20 13:37 32.772744 -116.438143 264 9985ft 260kts
17-Jun-20 13:38 32.766814 -116.524102 265 9987ft 263kts
17-Jun-20 13:39 32.766039 -116.612609 269 9985ft 269kts
17-Jun-20 13:40 32.765398 -116.700724 249 9982ft 260kts
17-Jun-20 13:41 32.731479 -116.779634 240 8423ft 276kts
17-Jun-20 13:42 32.694799 -116.857910 240 6137ft 268kts
17-Jun-20 13:43 32.666940 -116.932362 279 4979ft 225kts
17-Jun-20 13:44 32.689620 -117.004746 284 4294ft 241kts
17-Jun-20 13:45 32.706606 -117.076890 284 2559ft 205kts
17-Jun-20 13:46 32.719021 -117.129203 280 996ft 132kts
17-Jun-20 13:47 32.728911 -117.170522 282 261ft 128kts
17-Jun-20 13:48 32.734992 -117.198274 197 22ft 5kts
17-Jun-20 13:49 32.733846 -117.198573 176 22ft 0kts
17-Jun-20 13:50 32.733832 -117.198572 176 22ft 0kts
17-Jun-20 13:51 32.733831 -117.198572 176 22ft 0kts
17-Jun-20 13:52 32.733831 -117.198572 176 22ft 0kts
17-Jun-20 13:53 32.733831 -117.198572 176 22ft 0kts
17-Jun-20 13:54 32.733831 -117.198572 176 22ft 0kts

Navigation Log

Ident Type
Flight plan parsing failed, navigation log unavailable